sensor_id;sensor_type;location;lat;lon;timestamp;P1;durP1;ratioP1;P2;durP2;ratioP2
25615;SDS011;13482;48.234;13.006;2023-04-01T00:00:07;1.52;;;0.40;;
25615;SDS011;13482;48.234;13.006;2023-04-01T00:02:35;2.00;;;0.38;;
25615;SDS011;13482;48.234;13.006;2023-04-01T00:05:03;1.35;;;0.30;;
25615;SDS011;13482;48.234;13.006;2023-04-01T00:07:31;1.08;;;0.30;;
25615;SDS011;13482;48.234;13.006;2023-04-01T00:09:59;1.63;;;0.35;;
25615;SDS011;13482;48.234;13.006;2023-04-01T00:12:26;0.73;;;0.20;;
25615;SDS011;13482;48.234;13.006;2023-04-01T00:14:54;1.35;;;0.40;;
25615;SDS011;13482;48.234;13.006;2023-04-01T00:17:21;1.13;;;0.20;;
25615;SDS011;13482;48.234;13.006;2023-04-01T00:19:49;0.77;;;0.30;;
25615;SDS011;13482;48.234;13.006;2023-04-01T00:22:16;1.10;;;0.30;;
25615;SDS011;13482;48.234;13.006;2023-04-01T00:24:43;1.30;;;0.30;;
25615;SDS011;13482;48.234;13.006;2023-04-01T00:27:10;1.38;;;0.40;;
25615;SDS011;13482;48.234;13.006;2023-04-01T00:29:37;1.70;;;0.45;;
25615;SDS011;13482;48.234;13.006;2023-04-01T00:32:07;1.05;;;0.20;;
25615;SDS011;13482;48.234;13.006;2023-04-01T00:34:34;1.73;;;0.30;;
25615;SDS011;13482;48.234;13.006;2023-04-01T00:37:02;1.08;;;0.30;;
25615;SDS011;13482;48.234;13.006;2023-04-01T00:39:30;0.55;;;0.20;;
25615;SDS011;13482;48.234;13.006;2023-04-01T00:41:58;1.40;;;0.20;;
25615;SDS011;13482;48.234;13.006;2023-04-01T00:44:28;0.85;;;0.10;;
25615;SDS011;13482;48.234;13.006;2023-04-01T00:46:59;1.10;;;0.30;;
25615;SDS011;13482;48.234;13.006;2023-04-01T00:49:31;1.63;;;0.28;;
25615;SDS011;13482;48.234;13.006;2023-04-01T00:52:04;2.38;;;0.30;;
25615;SDS011;13482;48.234;13.006;2023-04-01T00:54:34;0.73;;;0.25;;
25615;SDS011;13482;48.234;13.006;2023-04-01T00:57:07;1.90;;;0.17;;
25615;SDS011;13482;48.234;13.006;2023-04-01T00:59:47;0.60;;;0.20;;
25615;SDS011;13482;48.234;13.006;2023-04-01T01:02:19;0.75;;;0.20;;
25615;SDS011;13482;48.234;13.006;2023-04-01T01:04:47;1.08;;;0.20;;
25615;SDS011;13482;48.234;13.006;2023-04-01T01:07:33;0.85;;;0.20;;
25615;SDS011;13482;48.234;13.006;2023-04-01T01:10:34;0.40;;;0.20;;
25615;SDS011;13482;48.234;13.006;2023-04-01T01:13:13;0.20;;;0.05;;
25615;SDS011;13482;48.234;13.006;2023-04-01T01:16:00;1.38;;;0.20;;
25615;SDS011;13482;48.234;13.006;2023-04-01T01:21:30;0.52;;;0.10;;
25615;SDS011;13482;48.234;13.006;2023-04-01T01:29:42;1.42;;;0.28;;
25615;SDS011;13482;48.234;13.006;2023-04-01T01:32:42;0.65;;;0.20;;
25615;SDS011;13482;48.234;13.006;2023-04-01T01:35:40;0.68;;;0.20;;
25615;SDS011;13482;48.234;13.006;2023-04-01T01:38:17;0.77;;;0.20;;
25615;SDS011;13482;48.234;13.006;2023-04-01T01:40:50;0.30;;;0.10;;
25615;SDS011;13482;48.234;13.006;2023-04-01T01:43:28;0.68;;;0.05;;
25615;SDS011;13482;48.234;13.006;2023-04-01T01:46:04;1.25;;;0.30;;
25615;SDS011;13482;48.234;13.006;2023-04-01T01:48:39;0.40;;;0.10;;
25615;SDS011;13482;48.234;13.006;2023-04-01T01:51:09;1.50;;;0.15;;
25615;SDS011;13482;48.234;13.006;2023-04-01T01:53:36;0.80;;;0.20;;
25615;SDS011;13482;48.234;13.006;2023-04-01T01:56:04;0.75;;;0.20;;
25615;SDS011;13482;48.234;13.006;2023-04-01T01:58:33;1.20;;;0.20;;
25615;SDS011;13482;48.234;13.006;2023-04-01T02:03:52;0.57;;;0.10;;
25615;SDS011;13482;48.234;13.006;2023-04-01T02:06:22;1.20;;;0.22;;
25615;SDS011;13482;48.234;13.006;2023-04-01T02:08:55;0.63;;;0.17;;
25615;SDS011;13482;48.234;13.006;2023-04-01T02:11:41;1.33;;;0.10;;
25615;SDS011;13482;48.234;13.006;2023-04-01T02:14:25;0.65;;;0.10;;
25615;SDS011;13482;48.234;13.006;2023-04-01T02:17:07;0.17;;;0.10;;
25615;SDS011;13482;48.234;13.006;2023-04-01T02:19:41;0.40;;;0.00;;
25615;SDS011;13482;48.234;13.006;2023-04-01T02:22:21;0.47;;;0.10;;
25615;SDS011;13482;48.234;13.006;2023-04-01T02:24:54;0.10;;;0.03;;
25615;SDS011;13482;48.234;13.006;2023-04-01T02:27:28;1.17;;;0.20;;
25615;SDS011;13482;48.234;13.006;2023-04-01T02:29:56;1.38;;;0.22;;
25615;SDS011;13482;48.234;13.006;2023-04-01T02:32:24;0.55;;;0.13;;
25615;SDS011;13482;48.234;13.006;2023-04-01T02:34:53;1.05;;;0.20;;
25615;SDS011;13482;48.234;13.006;2023-04-01T02:37:20;0.52;;;0.10;;
25615;SDS011;13482;48.234;13.006;2023-04-01T02:39:48;1.17;;;0.17;;
25615;SDS011;13482;48.234;13.006;2023-04-01T02:42:15;1.02;;;0.20;;
25615;SDS011;13482;48.234;13.006;2023-04-01T02:44:42;0.55;;;0.10;;
25615;SDS011;13482;48.234;13.006;2023-04-01T02:47:09;0.85;;;0.28;;
25615;SDS011;13482;48.234;13.006;2023-04-01T02:49:37;0.60;;;0.10;;
25615;SDS011;13482;48.234;13.006;2023-04-01T02:52:04;0.88;;;0.17;;
25615;SDS011;13482;48.234;13.006;2023-04-01T02:54:31;0.88;;;0.20;;
25615;SDS011;13482;48.234;13.006;2023-04-01T02:56:58;1.52;;;0.15;;
25615;SDS011;13482;48.234;13.006;2023-04-01T02:59:25;0.63;;;0.10;;
25615;SDS011;13482;48.234;13.006;2023-04-01T03:01:52;0.70;;;0.10;;
25615;SDS011;13482;48.234;13.006;2023-04-01T03:04:20;0.65;;;0.10;;
25615;SDS011;13482;48.234;13.006;2023-04-01T03:06:47;0.60;;;0.20;;
25615;SDS011;13482;48.234;13.006;2023-04-01T03:09:14;1.48;;;0.28;;
25615;SDS011;13482;48.234;13.006;2023-04-01T03:11:42;0.47;;;0.20;;
25615;SDS011;13482;48.234;13.006;2023-04-01T03:14:09;1.05;;;0.20;;
25615;SDS011;13482;48.234;13.006;2023-04-01T03:16:36;0.80;;;0.10;;
25615;SDS011;13482;48.234;13.006;2023-04-01T03:19:03;0.75;;;0.20;;
25615;SDS011;13482;48.234;13.006;2023-04-01T03:21:30;1.70;;;0.20;;
25615;SDS011;13482;48.234;13.006;2023-04-01T03:23:58;1.25;;;0.20;;
25615;SDS011;13482;48.234;13.006;2023-04-01T03:26:25;0.57;;;0.10;;
25615;SDS011;13482;48.234;13.006;2023-04-01T03:28:55;0.60;;;0.20;;
25615;SDS011;13482;48.234;13.006;2023-04-01T03:31:23;1.13;;;0.20;;
25615;SDS011;13482;48.234;13.006;2023-04-01T03:33:51;1.45;;;0.28;;
25615;SDS011;13482;48.234;13.006;2023-04-01T03:36:18;0.65;;;0.20;;
25615;SDS011;13482;48.234;13.006;2023-04-01T03:38:46;0.60;;;0.10;;
25615;SDS011;13482;48.234;13.006;2023-04-01T03:41:14;1.15;;;0.20;;
25615;SDS011;13482;48.234;13.006;2023-04-01T03:43:43;0.57;;;0.10;;
25615;SDS011;13482;48.234;13.006;2023-04-01T03:46:11;1.00;;;0.30;;
25615;SDS011;13482;48.234;13.006;2023-04-01T03:48:44;1.17;;;0.30;;
25615;SDS011;13482;48.234;13.006;2023-04-01T03:51:11;1.77;;;0.20;;
25615;SDS011;13482;48.234;13.006;2023-04-01T03:53:38;0.70;;;0.20;;
25615;SDS011;13482;48.234;13.006;2023-04-01T03:56:06;1.48;;;0.10;;
25615;SDS011;13482;48.234;13.006;2023-04-01T03:58:35;1.75;;;0.40;;
25615;SDS011;13482;48.234;13.006;2023-04-01T04:01:02;0.57;;;0.10;;
25615;SDS011;13482;48.234;13.006;2023-04-01T04:03:30;0.93;;;0.20;;
25615;SDS011;13482;48.234;13.006;2023-04-01T04:05:57;0.70;;;0.20;;
25615;SDS011;13482;48.234;13.006;2023-04-01T04:08:24;0.73;;;0.20;;
25615;SDS011;13482;48.234;13.006;2023-04-01T04:10:55;1.15;;;0.20;;
25615;SDS011;13482;48.234;13.006;2023-04-01T04:13:22;1.65;;;0.20;;
25615;SDS011;13482;48.234;13.006;2023-04-01T04:15:49;0.35;;;0.10;;
25615;SDS011;13482;48.234;13.006;2023-04-01T04:18:16;1.27;;;0.20;;
25615;SDS011;13482;48.234;13.006;2023-04-01T04:20:44;1.52;;;0.40;;
25615;SDS011;13482;48.234;13.006;2023-04-01T04:23:14;1.90;;;0.20;;
25615;SDS011;13482;48.234;13.006;2023-04-01T04:25:52;0.88;;;0.20;;
25615;SDS011;13482;48.234;13.006;2023-04-01T04:28:40;0.90;;;0.20;;
25615;SDS011;13482;48.234;13.006;2023-04-01T04:31:07;0.63;;;0.13;;
25615;SDS011;13482;48.234;13.006;2023-04-01T04:33:35;0.55;;;0.10;;
25615;SDS011;13482;48.234;13.006;2023-04-01T04:36:02;0.65;;;0.20;;
25615;SDS011;13482;48.234;13.006;2023-04-01T04:38:31;0.52;;;0.20;;
25615;SDS011;13482;48.234;13.006;2023-04-01T04:40:58;0.85;;;0.20;;
25615;SDS011;13482;48.234;13.006;2023-04-01T04:43:25;0.75;;;0.20;;
25615;SDS011;13482;48.234;13.006;2023-04-01T04:45:52;1.23;;;0.20;;
25615;SDS011;13482;48.234;13.006;2023-04-01T04:48:20;0.60;;;0.10;;
25615;SDS011;13482;48.234;13.006;2023-04-01T04:50:47;0.28;;;0.05;;
25615;SDS011;13482;48.234;13.006;2023-04-01T04:53:17;0.20;;;0.00;;
25615;SDS011;13482;48.234;13.006;2023-04-01T04:55:45;0.10;;;0.03;;
25615;SDS011;13482;48.234;13.006;2023-04-01T04:58:15;1.23;;;0.10;;
25615;SDS011;13482;48.234;13.006;2023-04-01T05:00:43;0.52;;;0.20;;
25615;SDS011;13482;48.234;13.006;2023-04-01T05:03:11;0.85;;;0.20;;
25615;SDS011;13482;48.234;13.006;2023-04-01T05:05:39;0.70;;;0.17;;
25615;SDS011;13482;48.234;13.006;2023-04-01T05:08:16;0.32;;;0.10;;
25615;SDS011;13482;48.234;13.006;2023-04-01T05:10:43;1.17;;;0.08;;
25615;SDS011;13482;48.234;13.006;2023-04-01T05:13:11;0.32;;;0.10;;
25615;SDS011;13482;48.234;13.006;2023-04-01T05:15:38;0.50;;;0.13;;
25615;SDS011;13482;48.234;13.006;2023-04-01T05:18:06;0.38;;;0.10;;
25615;SDS011;13482;48.234;13.006;2023-04-01T05:20:33;0.00;;;0.00;;
25615;SDS011;13482;48.234;13.006;2023-04-01T05:23:00;0.28;;;0.10;;
25615;SDS011;13482;48.234;13.006;2023-04-01T05:25:27;0.10;;;0.10;;
25615;SDS011;13482;48.234;13.006;2023-04-01T05:27:55;1.13;;;0.03;;
25615;SDS011;13482;48.234;13.006;2023-04-01T05:30:22;0.20;;;0.08;;
25615;SDS011;13482;48.234;13.006;2023-04-01T05:32:49;0.20;;;0.20;;
25615;SDS011;13482;48.234;13.006;2023-04-01T05:35:16;0.40;;;0.10;;
25615;SDS011;13482;48.234;13.006;2023-04-01T05:37:43;0.15;;;0.10;;
25615;SDS011;13482;48.234;13.006;2023-04-01T05:40:11;0.08;;;0.00;;
25615;SDS011;13482;48.234;13.006;2023-04-01T05:42:38;0.10;;;0.00;;
25615;SDS011;13482;48.234;13.006;2023-04-01T05:45:06;0.30;;;0.10;;
25615;SDS011;13482;48.234;13.006;2023-04-01T05:47:34;0.30;;;0.10;;
25615;SDS011;13482;48.234;13.006;2023-04-01T05:50:02;2.05;;;0.20;;
25615;SDS011;13482;48.234;13.006;2023-04-01T05:52:30;0.75;;;0.10;;
25615;SDS011;13482;48.234;13.006;2023-04-01T05:54:57;1.38;;;0.10;;
25615;SDS011;13482;48.234;13.006;2023-04-01T05:57:26;0.17;;;0.00;;
25615;SDS011;13482;48.234;13.006;2023-04-01T05:59:53;0.13;;;0.00;;
25615;SDS011;13482;48.234;13.006;2023-04-01T06:02:20;0.13;;;0.00;;
25615;SDS011;13482;48.234;13.006;2023-04-01T06:04:48;0.10;;;0.00;;
25615;SDS011;13482;48.234;13.006;2023-04-01T06:07:17;0.20;;;0.10;;
25615;SDS011;13482;48.234;13.006;2023-04-01T06:09:44;0.10;;;0.08;;
25615;SDS011;13482;48.234;13.006;2023-04-01T06:19:09;0.17;;;0.00;;
25615;SDS011;13482;48.234;13.006;2023-04-01T06:36:33;0.25;;;0.10;;
25615;SDS011;13482;48.234;13.006;2023-04-01T06:39:31;0.82;;;0.20;;
25615;SDS011;13482;48.234;13.006;2023-04-01T06:51:01;0.88;;;0.13;;
25615;SDS011;13482;48.234;13.006;2023-04-01T06:56:53;0.30;;;0.10;;
25615;SDS011;13482;48.234;13.006;2023-04-01T06:59:28;0.30;;;0.10;;
25615;SDS011;13482;48.234;13.006;2023-04-01T07:02:01;0.35;;;0.10;;
25615;SDS011;13482;48.234;13.006;2023-04-01T07:04:40;0.77;;;0.20;;
25615;SDS011;13482;48.234;13.006;2023-04-01T07:13:00;0.22;;;0.10;;
25615;SDS011;13482;48.234;13.006;2023-04-01T07:15:43;0.52;;;0.10;;
25615;SDS011;13482;48.234;13.006;2023-04-01T07:18:25;0.38;;;0.13;;
25615;SDS011;13482;48.234;13.006;2023-04-01T07:21:03;0.15;;;0.05;;
25615;SDS011;13482;48.234;13.006;2023-04-01T07:23:38;0.52;;;0.20;;
25615;SDS011;13482;48.234;13.006;2023-04-01T07:26:22;1.15;;;0.38;;
25615;SDS011;13482;48.234;13.006;2023-04-01T07:28:51;0.30;;;0.10;;
25615;SDS011;13482;48.234;13.006;2023-04-01T07:34:08;0.32;;;0.10;;
25615;SDS011;13482;48.234;13.006;2023-04-01T07:51:03;1.40;;;0.45;;
25615;SDS011;13482;48.234;13.006;2023-04-01T07:53:42;0.40;;;0.20;;
25615;SDS011;13482;48.234;13.006;2023-04-01T07:59:11;0.95;;;0.25;;
25615;SDS011;13482;48.234;13.006;2023-04-01T08:15:41;2.42;;;2.22;;
25615;SDS011;13482;48.234;13.006;2023-04-01T08:21:15;3.28;;;2.38;;
25615;SDS011;13482;48.234;13.006;2023-04-01T08:23:57;1.65;;;1.20;;
25615;SDS011;13482;48.234;13.006;2023-04-01T08:26:48;1.20;;;0.70;;
25615;SDS011;13482;48.234;13.006;2023-04-01T08:29:34;2.15;;;0.50;;
25615;SDS011;13482;48.234;13.006;2023-04-01T08:32:18;1.35;;;0.25;;
25615;SDS011;13482;48.234;13.006;2023-04-01T08:35:07;0.60;;;0.25;;
25615;SDS011;13482;48.234;13.006;2023-04-01T08:37:50;0.60;;;0.20;;
25615;SDS011;13482;48.234;13.006;2023-04-01T09:03:48;6.00;;;0.30;;
25615;SDS011;13482;48.234;13.006;2023-04-01T09:07:00;1.05;;;0.30;;
25615;SDS011;13482;48.234;13.006;2023-04-01T09:47:28;0.95;;;0.20;;
25615;SDS011;13482;48.234;13.006;2023-04-01T10:02:10;0.52;;;0.20;;
25615;SDS011;13482;48.234;13.006;2023-04-01T10:11:17;6.72;;;3.78;;
25615;SDS011;13482;48.234;13.006;2023-04-01T10:42:27;12.07;;;7.65;;
25615;SDS011;13482;48.234;13.006;2023-04-01T10:57:02;6.00;;;3.33;;
25615;SDS011;13482;48.234;13.006;2023-04-01T11:06:03;5.07;;;2.85;;
25615;SDS011;13482;48.234;13.006;2023-04-01T11:12:31;7.55;;;3.85;;
25615;SDS011;13482;48.234;13.006;2023-04-01T11:19:01;11.93;;;5.60;;
25615;SDS011;13482;48.234;13.006;2023-04-01T11:42:49;8.95;;;3.30;;
25615;SDS011;13482;48.234;13.006;2023-04-01T11:45:35;5.43;;;1.95;;
25615;SDS011;13482;48.234;13.006;2023-04-01T11:48:41;6.28;;;2.50;;
25615;SDS011;13482;48.234;13.006;2023-04-01T11:54:12;5.20;;;2.30;;
25615;SDS011;13482;48.234;13.006;2023-04-01T11:59:41;3.25;;;1.25;;
25615;SDS011;13482;48.234;13.006;2023-04-01T12:09:19;6.47;;;2.10;;
25615;SDS011;13482;48.234;13.006;2023-04-01T12:14:06;6.70;;;2.30;;
25615;SDS011;13482;48.234;13.006;2023-04-01T12:19:58;4.30;;;1.65;;
25615;SDS011;13482;48.234;13.006;2023-04-01T12:23:03;4.38;;;1.30;;
25615;SDS011;13482;48.234;13.006;2023-04-01T12:32:30;4.25;;;1.65;;
25615;SDS011;13482;48.234;13.006;2023-04-01T12:38:19;1.20;;;0.50;;
25615;SDS011;13482;48.234;13.006;2023-04-01T12:55:36;0.43;;;0.00;;
25615;SDS011;13482;48.234;13.006;2023-04-01T12:58:53;0.00;;;0.00;;
25615;SDS011;13482;48.234;13.006;2023-04-01T13:01:34;0.00;;;0.00;;
25615;SDS011;13482;48.234;13.006;2023-04-01T13:04:38;0.10;;;0.00;;
25615;SDS011;13482;48.234;13.006;2023-04-01T13:13:00;0.10;;;0.00;;
25615;SDS011;13482;48.234;13.006;2023-04-01T13:29:43;0.95;;;0.75;;
25615;SDS011;13482;48.234;13.006;2023-04-01T13:41:01;0.10;;;0.03;;
25615;SDS011;13482;48.234;13.006;2023-04-01T13:43:49;0.00;;;0.00;;
25615;SDS011;13482;48.234;13.006;2023-04-01T13:52:55;0.00;;;0.00;;
25615;SDS011;13482;48.234;13.006;2023-04-01T13:55:41;0.10;;;0.00;;
25615;SDS011;13482;48.234;13.006;2023-04-01T14:01:56;0.20;;;0.10;;
25615;SDS011;13482;48.234;13.006;2023-04-01T14:04:47;1.15;;;0.28;;
25615;SDS011;13482;48.234;13.006;2023-04-01T14:08:04;0.10;;;0.10;;
25615;SDS011;13482;48.234;13.006;2023-04-01T14:31:32;0.10;;;0.00;;
25615;SDS011;13482;48.234;13.006;2023-04-01T14:40:12;0.10;;;0.00;;
25615;SDS011;13482;48.234;13.006;2023-04-01T14:43:03;0.10;;;0.00;;
25615;SDS011;13482;48.234;13.006;2023-04-01T14:49:13;0.20;;;0.10;;
25615;SDS011;13482;48.234;13.006;2023-04-01T14:51:48;0.15;;;0.10;;
25615;SDS011;13482;48.234;13.006;2023-04-01T14:54:19;0.20;;;0.10;;
25615;SDS011;13482;48.234;13.006;2023-04-01T14:57:10;0.10;;;0.10;;
25615;SDS011;13482;48.234;13.006;2023-04-01T14:59:47;1.23;;;0.80;;
25615;SDS011;13482;48.234;13.006;2023-04-01T15:02:27;2.45;;;1.42;;
25615;SDS011;13482;48.234;13.006;2023-04-01T15:05:26;1.83;;;0.90;;
25615;SDS011;13482;48.234;13.006;2023-04-01T15:08:15;3.47;;;2.55;;
25615;SDS011;13482;48.234;13.006;2023-04-01T15:14:21;2.38;;;1.48;;
25615;SDS011;13482;48.234;13.006;2023-04-01T15:23:28;3.92;;;2.20;;
25615;SDS011;13482;48.234;13.006;2023-04-01T15:26:26;4.78;;;3.15;;
25615;SDS011;13482;48.234;13.006;2023-04-01T15:41:14;5.38;;;3.85;;
25615;SDS011;13482;48.234;13.006;2023-04-01T15:43:56;2.83;;;1.77;;
25615;SDS011;13482;48.234;13.006;2023-04-01T15:49:19;2.08;;;1.48;;
25615;SDS011;13482;48.234;13.006;2023-04-01T15:52:18;2.92;;;2.47;;
25615;SDS011;13482;48.234;13.006;2023-04-01T16:19:53;0.75;;;0.13;;
25615;SDS011;13482;48.234;13.006;2023-04-01T16:25:32;0.10;;;0.10;;
25615;SDS011;13482;48.234;13.006;2023-04-01T16:36:40;0.20;;;0.10;;
25615;SDS011;13482;48.234;13.006;2023-04-01T16:39:26;0.20;;;0.10;;
25615;SDS011;13482;48.234;13.006;2023-04-01T16:50:44;0.10;;;0.10;;
25615;SDS011;13482;48.234;13.006;2023-04-01T16:53:30;0.25;;;0.10;;
25615;SDS011;13482;48.234;13.006;2023-04-01T17:07:01;0.52;;;0.28;;
25615;SDS011;13482;48.234;13.006;2023-04-01T17:13:06;0.43;;;0.30;;
25615;SDS011;13482;48.234;13.006;2023-04-01T17:16:17;0.82;;;0.40;;
25615;SDS011;13482;48.234;13.006;2023-04-01T17:18:58;1.10;;;0.60;;
25615;SDS011;13482;48.234;13.006;2023-04-01T17:27:36;1.60;;;1.13;;
25615;SDS011;13482;48.234;13.006;2023-04-01T17:38:39;2.10;;;1.48;;
25615;SDS011;13482;48.234;13.006;2023-04-01T17:42:11;1.38;;;1.00;;
25615;SDS011;13482;48.234;13.006;2023-04-01T17:50:09;0.55;;;0.50;;
25615;SDS011;13482;48.234;13.006;2023-04-01T17:58:29;0.22;;;0.10;;
25615;SDS011;13482;48.234;13.006;2023-04-01T18:10:25;0.73;;;0.40;;
25615;SDS011;13482;48.234;13.006;2023-04-01T18:22:22;0.68;;;0.60;;
25615;SDS011;13482;48.234;13.006;2023-04-01T18:36:17;0.70;;;0.50;;
25615;SDS011;13482;48.234;13.006;2023-04-01T18:42:00;0.82;;;0.50;;
25615;SDS011;13482;48.234;13.006;2023-04-01T18:48:03;0.30;;;0.20;;
25615;SDS011;13482;48.234;13.006;2023-04-01T18:50:56;0.47;;;0.22;;
25615;SDS011;13482;48.234;13.006;2023-04-01T18:53:38;0.47;;;0.30;;
25615;SDS011;13482;48.234;13.006;2023-04-01T18:56:29;0.60;;;0.35;;
25615;SDS011;13482;48.234;13.006;2023-04-01T19:02:25;0.47;;;0.30;;
25615;SDS011;13482;48.234;13.006;2023-04-01T19:05:23;0.40;;;0.30;;
25615;SDS011;13482;48.234;13.006;2023-04-01T19:08:19;0.75;;;0.50;;
25615;SDS011;13482;48.234;13.006;2023-04-01T19:19:10;0.52;;;0.30;;
25615;SDS011;13482;48.234;13.006;2023-04-01T19:22:10;0.45;;;0.30;;
25615;SDS011;13482;48.234;13.006;2023-04-01T19:27:59;0.43;;;0.20;;
25615;SDS011;13482;48.234;13.006;2023-04-01T19:36:46;0.22;;;0.10;;
25615;SDS011;13482;48.234;13.006;2023-04-01T20:00:14;0.70;;;0.30;;
25615;SDS011;13482;48.234;13.006;2023-04-01T20:12:00;0.35;;;0.17;;
25615;SDS011;13482;48.234;13.006;2023-04-01T20:17:51;0.47;;;0.20;;
25615;SDS011;13482;48.234;13.006;2023-04-01T20:20:24;0.35;;;0.20;;
25615;SDS011;13482;48.234;13.006;2023-04-01T20:26:10;1.25;;;0.30;;
25615;SDS011;13482;48.234;13.006;2023-04-01T20:31:20;0.35;;;0.10;;
25615;SDS011;13482;48.234;13.006;2023-04-01T20:34:15;0.47;;;0.15;;
25615;SDS011;13482;48.234;13.006;2023-04-01T20:39:32;0.20;;;0.10;;
25615;SDS011;13482;48.234;13.006;2023-04-01T20:42:18;0.85;;;0.10;;
25615;SDS011;13482;48.234;13.006;2023-04-01T20:45:26;0.28;;;0.10;;
25615;SDS011;13482;48.234;13.006;2023-04-01T20:51:04;0.10;;;0.10;;
25615;SDS011;13482;48.234;13.006;2023-04-01T20:53:58;0.25;;;0.10;;
25615;SDS011;13482;48.234;13.006;2023-04-01T20:57:00;0.13;;;0.08;;
25615;SDS011;13482;48.234;13.006;2023-04-01T21:08:14;0.17;;;0.10;;
25615;SDS011;13482;48.234;13.006;2023-04-01T21:11:21;0.15;;;0.10;;
25615;SDS011;13482;48.234;13.006;2023-04-01T21:17:27;0.93;;;0.25;;
25615;SDS011;13482;48.234;13.006;2023-04-01T21:38:24;0.30;;;0.10;;
25615;SDS011;13482;48.234;13.006;2023-04-01T21:41:34;0.20;;;0.10;;
25615;SDS011;13482;48.234;13.006;2023-04-01T21:44:37;0.10;;;0.10;;
25615;SDS011;13482;48.234;13.006;2023-04-01T21:53:24;0.10;;;0.00;;
25615;SDS011;13482;48.234;13.006;2023-04-01T21:56:43;0.10;;;0.00;;
25615;SDS011;13482;48.234;13.006;2023-04-01T22:06:27;0.00;;;0.00;;
25615;SDS011;13482;48.234;13.006;2023-04-01T22:17:32;0.47;;;0.10;;
25615;SDS011;13482;48.234;13.006;2023-04-01T22:20:35;0.25;;;0.08;;
25615;SDS011;13482;48.234;13.006;2023-04-01T22:23:26;0.00;;;0.00;;
25615;SDS011;13482;48.234;13.006;2023-04-01T22:26:09;0.85;;;0.20;;
25615;SDS011;13482;48.234;13.006;2023-04-01T22:34:44;0.20;;;0.00;;
25615;SDS011;13482;48.234;13.006;2023-04-01T22:40:35;1.10;;;0.13;;
25615;SDS011;13482;48.234;13.006;2023-04-01T22:43:36;0.32;;;0.10;;
25615;SDS011;13482;48.234;13.006;2023-04-01T22:57:52;0.40;;;0.30;;
25615;SDS011;13482;48.234;13.006;2023-04-01T23:00:37;0.40;;;0.30;;
25615;SDS011;13482;48.234;13.006;2023-04-01T23:03:28;0.57;;;0.28;;
25615;SDS011;13482;48.234;13.006;2023-04-01T23:06:00;0.45;;;0.20;;
25615;SDS011;13482;48.234;13.006;2023-04-01T23:11:22;0.30;;;0.20;;
25615;SDS011;13482;48.234;13.006;2023-04-01T23:16:45;0.47;;;0.22;;
25615;SDS011;13482;48.234;13.006;2023-04-01T23:25:45;0.32;;;0.10;;
25615;SDS011;13482;48.234;13.006;2023-04-01T23:31:28;0.38;;;0.20;;
25615;SDS011;13482;48.234;13.006;2023-04-01T23:34:01;0.20;;;0.15;;
25615;SDS011;13482;48.234;13.006;2023-04-01T23:36:44;0.40;;;0.17;;
25615;SDS011;13482;48.234;13.006;2023-04-01T23:39:28;0.20;;;0.10;;
25615;SDS011;13482;48.234;13.006;2023-04-01T23:44:49;0.20;;;0.10;;
25615;SDS011;13482;48.234;13.006;2023-04-01T23:47:23;1.00;;;0.30;;
25615;SDS011;13482;48.234;13.006;2023-04-01T23:50:10;1.02;;;0.20;;
25615;SDS011;13482;48.234;13.006;2023-04-01T23:52:52;0.57;;;0.10;;
25615;SDS011;13482;48.234;13.006;2023-04-01T23:55:47;0.20;;;0.10;;
25615;SDS011;13482;48.234;13.006;2023-04-01T23:58:17;0.40;;;0.10;;
